sensor_id;sensor_type;location;lat;lon;timestamp;pressure;altitude;pressure_sealevel;temperature;humidity
54270;BME280;40181;51.560;13.000;2024-02-23T00:00:11;97755.84;;;11.11;91.57
54270;BME280;40181;51.560;13.000;2024-02-23T00:02:43;97767.03;;;11.17;91.19
54270;BME280;40181;51.560;13.000;2024-02-23T00:05:12;97765.28;;;11.16;91.13
54270;BME280;40181;51.560;13.000;2024-02-23T00:07:41;97775.72;;;11.19;91.02
54270;BME280;40181;51.560;13.000;2024-02-23T00:10:10;97771.38;;;11.18;90.62
54270;BME280;40181;51.560;13.000;2024-02-23T00:12:39;97804.31;;;11.02;90.89
54270;BME280;40181;51.560;13.000;2024-02-23T00:15:11;97788.72;;;11.24;90.06
54270;BME280;40181;51.560;13.000;2024-02-23T00:17:40;97782.69;;;11.20;90.04
54270;BME280;40181;51.560;13.000;2024-02-23T00:20:10;97775.69;;;11.21;89.50
54270;BME280;40181;51.560;13.000;2024-02-23T00:22:40;97761.47;;;11.27;88.64
54270;BME280;40181;51.560;13.000;2024-02-23T00:25:09;97762.47;;;11.23;88.14
54270;BME280;40181;51.560;13.000;2024-02-23T00:27:38;97752.59;;;11.29;88.08
54270;BME280;40181;51.560;13.000;2024-02-23T00:30:11;97765.00;;;11.26;87.72
54270;BME280;40181;51.560;13.000;2024-02-23T00:32:41;97753.59;;;11.27;87.96
54270;BME280;40181;51.560;13.000;2024-02-23T00:35:10;97764.28;;;11.20;87.75
54270;BME280;40181;51.560;13.000;2024-02-23T00:37:38;97786.63;;;11.07;88.10
54270;BME280;40181;51.560;13.000;2024-02-23T00:40:09;97786.75;;;11.29;87.00
54270;BME280;40181;51.560;13.000;2024-02-23T00:42:39;97801.13;;;11.19;87.39
54270;BME280;40181;51.560;13.000;2024-02-23T00:45:10;97793.69;;;11.32;86.39
54270;BME280;40181;51.560;13.000;2024-02-23T00:47:39;97801.56;;;11.32;86.31
54270;BME280;40181;51.560;13.000;2024-02-23T00:50:12;97788.28;;;11.37;85.85
54270;BME280;40181;51.560;13.000;2024-02-23T00:52:41;97798.75;;;11.38;84.58
54270;BME280;40181;51.560;13.000;2024-02-23T00:55:10;97797.06;;;11.35;84.16
54270;BME280;40181;51.560;13.000;2024-02-23T00:57:39;97817.78;;;11.45;83.98
54270;BME280;40181;51.560;13.000;2024-02-23T01:00:11;97829.56;;;11.33;83.63
54270;BME280;40181;51.560;13.000;2024-02-23T01:02:41;97834.75;;;11.36;83.10
54270;BME280;40181;51.560;13.000;2024-02-23T01:05:10;97842.19;;;11.48;82.31
54270;BME280;40181;51.560;13.000;2024-02-23T01:07:39;97845.16;;;11.39;82.35
54270;BME280;40181;51.560;13.000;2024-02-23T01:10:08;97836.34;;;11.40;82.15
54270;BME280;40181;51.560;13.000;2024-02-23T01:12:37;97869.72;;;11.38;81.46
54270;BME280;40181;51.560;13.000;2024-02-23T01:15:07;97862.94;;;11.31;81.20
54270;BME280;40181;51.560;13.000;2024-02-23T01:17:39;97867.88;;;11.40;80.81
54270;BME280;40181;51.560;13.000;2024-02-23T01:20:08;97861.06;;;11.34;80.61
54270;BME280;40181;51.560;13.000;2024-02-23T01:22:38;97856.06;;;11.27;80.82
54270;BME280;40181;51.560;13.000;2024-02-23T01:25:07;97859.97;;;11.42;80.57
54270;BME280;40181;51.560;13.000;2024-02-23T01:27:36;97879.66;;;11.28;81.05
54270;BME280;40181;51.560;13.000;2024-02-23T01:30:07;97887.94;;;11.16;81.37
54270;BME280;40181;51.560;13.000;2024-02-23T01:32:39;97906.34;;;11.16;80.27
54270;BME280;40181;51.560;13.000;2024-02-23T01:35:08;97918.69;;;11.14;80.60
54270;BME280;40181;51.560;13.000;2024-02-23T01:37:37;97943.91;;;11.19;80.30
54270;BME280;40181;51.560;13.000;2024-02-23T01:40:07;97948.91;;;11.27;79.25
54270;BME280;40181;51.560;13.000;2024-02-23T01:42:37;97952.41;;;11.28;79.17
54270;BME280;40181;51.560;13.000;2024-02-23T01:45:07;97958.84;;;11.17;80.13
54270;BME280;40181;51.560;13.000;2024-02-23T01:47:39;97991.47;;;11.10;80.12
54270;BME280;40181;51.560;13.000;2024-02-23T01:50:08;97995.28;;;11.28;80.29
54270;BME280;40181;51.560;13.000;2024-02-23T01:52:38;97994.59;;;11.23;80.24
54270;BME280;40181;51.560;13.000;2024-02-23T01:55:08;98012.84;;;11.28;80.19
54270;BME280;40181;51.560;13.000;2024-02-23T01:57:37;98015.94;;;11.12;78.36
54270;BME280;40181;51.560;13.000;2024-02-23T02:00:11;98026.19;;;11.20;74.78
54270;BME280;40181;51.560;13.000;2024-02-23T02:02:47;98048.28;;;11.14;73.26
54270;BME280;40181;51.560;13.000;2024-02-23T02:05:16;98052.94;;;11.04;73.10
54270;BME280;40181;51.560;13.000;2024-02-23T02:07:47;98043.78;;;10.88;72.96
54270;BME280;40181;51.560;13.000;2024-02-23T02:10:20;98031.72;;;10.81;72.67
54270;BME280;40181;51.560;13.000;2024-02-23T02:12:49;98047.69;;;10.73;71.83
54270;BME280;40181;51.560;13.000;2024-02-23T02:15:20;98039.63;;;10.79;72.06
54270;BME280;40181;51.560;13.000;2024-02-23T02:17:50;98059.31;;;10.64;71.82
54270;BME280;40181;51.560;13.000;2024-02-23T02:20:23;98041.88;;;10.61;71.84
54270;BME280;40181;51.560;13.000;2024-02-23T02:22:53;98055.75;;;10.67;71.86
54270;BME280;40181;51.560;13.000;2024-02-23T02:25:22;98065.38;;;10.66;71.86
54270;BME280;40181;51.560;13.000;2024-02-23T02:27:51;98069.13;;;10.57;71.48
54270;BME280;40181;51.560;13.000;2024-02-23T02:30:23;98073.56;;;10.55;72.02
54270;BME280;40181;51.560;13.000;2024-02-23T02:32:52;98097.22;;;10.54;72.47
54270;BME280;40181;51.560;13.000;2024-02-23T02:35:21;98112.63;;;10.30;72.29
54270;BME280;40181;51.560;13.000;2024-02-23T02:37:50;98104.41;;;10.45;71.92
54270;BME280;40181;51.560;13.000;2024-02-23T02:40:19;98121.16;;;10.40;72.70
54270;BME280;40181;51.560;13.000;2024-02-23T02:42:48;98130.06;;;10.34;72.29
54270;BME280;40181;51.560;13.000;2024-02-23T02:45:17;98132.69;;;10.34;72.05
54270;BME280;40181;51.560;13.000;2024-02-23T02:47:49;98135.47;;;10.26;72.31
54270;BME280;40181;51.560;13.000;2024-02-23T02:50:18;98154.81;;;10.22;71.21
54270;BME280;40181;51.560;13.000;2024-02-23T02:52:47;98162.38;;;10.34;71.04
54270;BME280;40181;51.560;13.000;2024-02-23T02:55:16;98159.28;;;10.18;70.34
54270;BME280;40181;51.560;13.000;2024-02-23T02:57:45;98166.84;;;10.31;69.82
54270;BME280;40181;51.560;13.000;2024-02-23T03:00:14;98163.13;;;10.41;70.05
54270;BME280;40181;51.560;13.000;2024-02-23T03:02:43;98160.88;;;10.24;69.77
54270;BME280;40181;51.560;13.000;2024-02-23T03:05:15;98172.88;;;10.34;70.10
54270;BME280;40181;51.560;13.000;2024-02-23T03:07:44;98178.66;;;10.13;69.01
54270;BME280;40181;51.560;13.000;2024-02-23T03:10:13;98198.25;;;9.96;68.56
54270;BME280;40181;51.560;13.000;2024-02-23T03:12:42;98193.28;;;10.23;67.42
54270;BME280;40181;51.560;13.000;2024-02-23T03:15:11;98219.13;;;10.02;67.00
54270;BME280;40181;51.560;13.000;2024-02-23T03:17:41;98202.88;;;10.24;67.61
54270;BME280;40181;51.560;13.000;2024-02-23T03:20:11;98219.13;;;10.01;67.45
54270;BME280;40181;51.560;13.000;2024-02-23T03:22:43;98218.34;;;9.97;67.82
54270;BME280;40181;51.560;13.000;2024-02-23T03:25:12;98221.00;;;9.95;68.07
54270;BME280;40181;51.560;13.000;2024-02-23T03:27:41;98239.88;;;10.13;67.90
54270;BME280;40181;51.560;13.000;2024-02-23T03:30:11;98227.31;;;9.87;68.99
54270;BME280;40181;51.560;13.000;2024-02-23T03:32:40;98227.47;;;9.79;69.13
54270;BME280;40181;51.560;13.000;2024-02-23T03:35:09;98239.41;;;9.94;69.32
54270;BME280;40181;51.560;13.000;2024-02-23T03:37:41;98249.81;;;9.97;69.70
54270;BME280;40181;51.560;13.000;2024-02-23T03:40:10;98257.31;;;9.73;69.92
54270;BME280;40181;51.560;13.000;2024-02-23T03:42:40;98259.06;;;9.71;69.45
54270;BME280;40181;51.560;13.000;2024-02-23T03:45:09;98268.94;;;9.58;70.32
54270;BME280;40181;51.560;13.000;2024-02-23T03:47:38;98282.38;;;9.41;70.04
54270;BME280;40181;51.560;13.000;2024-02-23T03:50:08;98280.41;;;9.52;69.93
54270;BME280;40181;51.560;13.000;2024-02-23T03:52:40;98287.88;;;9.27;69.15
54270;BME280;40181;51.560;13.000;2024-02-23T03:55:09;98285.22;;;9.29;68.54
54270;BME280;40181;51.560;13.000;2024-02-23T03:57:38;98286.63;;;9.47;67.93
54270;BME280;40181;51.560;13.000;2024-02-23T04:00:09;98281.16;;;9.10;67.64
54270;BME280;40181;51.560;13.000;2024-02-23T04:02:39;98284.59;;;9.14;66.06
54270;BME280;40181;51.560;13.000;2024-02-23T04:05:08;98283.19;;;8.96;67.08
54270;BME280;40181;51.560;13.000;2024-02-23T04:07:37;98327.03;;;8.83;67.40
54270;BME280;40181;51.560;13.000;2024-02-23T04:10:09;98310.34;;;8.87;67.44
54270;BME280;40181;51.560;13.000;2024-02-23T04:12:41;98325.44;;;8.71;67.77
54270;BME280;40181;51.560;13.000;2024-02-23T04:15:10;98324.56;;;8.72;67.29
54270;BME280;40181;51.560;13.000;2024-02-23T04:17:40;98340.25;;;8.72;67.65
54270;BME280;40181;51.560;13.000;2024-02-23T04:20:09;98361.34;;;8.63;66.95
54270;BME280;40181;51.560;13.000;2024-02-23T04:22:41;98361.28;;;8.67;66.72
54270;BME280;40181;51.560;13.000;2024-02-23T04:25:11;98349.00;;;8.71;67.25
54270;BME280;40181;51.560;13.000;2024-02-23T04:27:40;98368.38;;;8.59;67.43
54270;BME280;40181;51.560;13.000;2024-02-23T04:30:11;98380.72;;;8.44;68.25
54270;BME280;40181;51.560;13.000;2024-02-23T04:32:41;98364.25;;;8.36;68.29
54270;BME280;40181;51.560;13.000;2024-02-23T04:35:10;98368.66;;;8.33;67.05
54270;BME280;40181;51.560;13.000;2024-02-23T04:37:43;98383.56;;;8.26;65.90
54270;BME280;40181;51.560;13.000;2024-02-23T04:40:15;98389.75;;;8.20;66.25
54270;BME280;40181;51.560;13.000;2024-02-23T04:42:44;98374.06;;;8.20;65.76
54270;BME280;40181;51.560;13.000;2024-02-23T04:45:13;98390.63;;;8.19;65.73
54270;BME280;40181;51.560;13.000;2024-02-23T04:47:42;98392.31;;;8.26;65.98
54270;BME280;40181;51.560;13.000;2024-02-23T04:50:12;98405.56;;;8.09;66.22
54270;BME280;40181;51.560;13.000;2024-02-23T04:52:43;98409.84;;;8.16;66.42
54270;BME280;40181;51.560;13.000;2024-02-23T04:55:12;98422.09;;;8.13;66.40
54270;BME280;40181;51.560;13.000;2024-02-23T04:57:41;98412.47;;;8.16;66.90
54270;BME280;40181;51.560;13.000;2024-02-23T05:00:12;98428.44;;;7.87;67.23
54270;BME280;40181;51.560;13.000;2024-02-23T05:02:41;98433.34;;;8.21;66.74
54270;BME280;40181;51.560;13.000;2024-02-23T05:05:10;98444.03;;;7.98;67.29
54270;BME280;40181;51.560;13.000;2024-02-23T05:07:39;98451.75;;;8.10;67.16
54270;BME280;40181;51.560;13.000;2024-02-23T05:10:11;98460.63;;;7.97;67.85
54270;BME280;40181;51.560;13.000;2024-02-23T05:12:42;98471.78;;;8.13;67.85
54270;BME280;40181;51.560;13.000;2024-02-23T05:15:11;98477.84;;;8.18;68.17
54270;BME280;40181;51.560;13.000;2024-02-23T05:17:40;98485.19;;;7.75;68.70
54270;BME280;40181;51.560;13.000;2024-02-23T05:20:11;98493.72;;;7.99;68.73
54270;BME280;40181;51.560;13.000;2024-02-23T05:22:44;98498.94;;;7.96;69.17
54270;BME280;40181;51.560;13.000;2024-02-23T05:25:13;98502.63;;;7.78;69.43
54270;BME280;40181;51.560;13.000;2024-02-23T05:27:42;98492.91;;;7.91;69.88
54270;BME280;40181;51.560;13.000;2024-02-23T05:30:12;98501.84;;;7.65;71.52
54270;BME280;40181;51.560;13.000;2024-02-23T05:32:41;98492.31;;;7.59;71.63
54270;BME280;40181;51.560;13.000;2024-02-23T05:35:12;98497.50;;;7.63;72.40
54270;BME280;40181;51.560;13.000;2024-02-23T05:37:44;98497.38;;;7.77;71.86
54270;BME280;40181;51.560;13.000;2024-02-23T05:40:13;98506.09;;;7.77;71.50
54270;BME280;40181;51.560;13.000;2024-02-23T05:42:42;98507.88;;;7.73;72.34
54270;BME280;40181;51.560;13.000;2024-02-23T05:45:11;98513.28;;;7.48;73.10
54270;BME280;40181;51.560;13.000;2024-02-23T05:47:40;98519.09;;;7.85;72.04
54270;BME280;40181;51.560;13.000;2024-02-23T05:50:10;98518.44;;;7.61;72.72
54270;BME280;40181;51.560;13.000;2024-02-23T05:52:39;98534.88;;;7.74;72.63
54270;BME280;40181;51.560;13.000;2024-02-23T05:55:10;98548.81;;;7.76;72.91
54270;BME280;40181;51.560;13.000;2024-02-23T05:57:40;98554.91;;;7.77;73.34
54270;BME280;40181;51.560;13.000;2024-02-23T06:00:09;98579.38;;;7.68;73.56
54270;BME280;40181;51.560;13.000;2024-02-23T06:02:40;98578.63;;;7.45;73.76
54270;BME280;40181;51.560;13.000;2024-02-23T06:05:09;98577.63;;;7.67;73.72
54270;BME280;40181;51.560;13.000;2024-02-23T06:07:38;98581.03;;;7.78;73.70
54270;BME280;40181;51.560;13.000;2024-02-23T06:10:10;98570.50;;;7.89;73.31
54270;BME280;40181;51.560;13.000;2024-02-23T06:12:39;98594.16;;;7.70;73.41
54270;BME280;40181;51.560;13.000;2024-02-23T06:15:09;98609.06;;;7.53;73.62
54270;BME280;40181;51.560;13.000;2024-02-23T06:17:38;98604.69;;;7.52;72.42
54270;BME280;40181;51.560;13.000;2024-02-23T06:20:09;98616.97;;;7.42;72.89
54270;BME280;40181;51.560;13.000;2024-02-23T06:22:38;98625.56;;;7.64;72.42
54270;BME280;40181;51.560;13.000;2024-02-23T06:25:10;98624.06;;;7.15;73.11
54270;BME280;40181;51.560;13.000;2024-02-23T06:27:39;98629.25;;;7.18;73.09
54270;BME280;40181;51.560;13.000;2024-02-23T06:30:09;98636.03;;;7.59;72.51
54270;BME280;40181;51.560;13.000;2024-02-23T06:32:39;98636.03;;;7.59;71.67
54270;BME280;40181;51.560;13.000;2024-02-23T06:35:09;98644.75;;;7.55;72.47
54270;BME280;40181;51.560;13.000;2024-02-23T06:37:39;98651.84;;;7.30;73.44
54270;BME280;40181;51.560;13.000;2024-02-23T06:40:11;98639.59;;;7.44;73.03
54270;BME280;40181;51.560;13.000;2024-02-23T06:42:41;98655.25;;;7.46;73.72
54270;BME280;40181;51.560;13.000;2024-02-23T06:45:10;98671.09;;;7.07;74.17
54270;BME280;40181;51.560;13.000;2024-02-23T06:47:39;98673.69;;;7.12;74.14
54270;BME280;40181;51.560;13.000;2024-02-23T06:50:09;98661.34;;;7.51;73.32
54270;BME280;40181;51.560;13.000;2024-02-23T06:52:38;98679.66;;;7.40;73.93
54270;BME280;40181;51.560;13.000;2024-02-23T06:55:07;98683.13;;;7.50;73.30
54270;BME280;40181;51.560;13.000;2024-02-23T06:57:39;98676.16;;;7.47;74.16
54270;BME280;40181;51.560;13.000;2024-02-23T07:00:09;98674.38;;;7.57;73.58
54270;BME280;40181;51.560;13.000;2024-02-23T07:02:39;98673.69;;;7.12;75.63
54270;BME280;40181;51.560;13.000;2024-02-23T07:05:08;98681.38;;;7.49;74.04
54270;BME280;40181;51.560;13.000;2024-02-23T07:07:37;98687.50;;;7.43;74.75
54270;BME280;40181;51.560;13.000;2024-02-23T07:10:07;98675.28;;;7.47;74.48
54270;BME280;40181;51.560;13.000;2024-02-23T07:12:39;98688.28;;;7.66;73.89
54270;BME280;40181;51.560;13.000;2024-02-23T07:15:09;98681.44;;;7.32;75.43
54270;BME280;40181;51.560;13.000;2024-02-23T07:17:38;98681.47;;;7.26;75.52
54270;BME280;40181;51.560;13.000;2024-02-23T07:20:09;98691.09;;;7.13;76.91
54270;BME280;40181;51.560;13.000;2024-02-23T07:22:38;98705.91;;;6.94;76.99
54270;BME280;40181;51.560;13.000;2024-02-23T07:25:15;98726.72;;;7.20;75.97
54270;BME280;40181;51.560;13.000;2024-02-23T07:27:46;98760.72;;;7.08;76.64
54270;BME280;40181;51.560;13.000;2024-02-23T07:30:16;98738.91;;;7.33;75.87
54270;BME280;40181;51.560;13.000;2024-02-23T07:32:45;98743.31;;;7.13;73.93
54270;BME280;40181;51.560;13.000;2024-02-23T07:35:15;98750.22;;;7.34;71.24
54270;BME280;40181;51.560;13.000;2024-02-23T07:37:44;98752.84;;;7.22;69.41
54270;BME280;40181;51.560;13.000;2024-02-23T07:40:17;98750.19;;;7.48;69.41
54270;BME280;40181;51.560;13.000;2024-02-23T07:42:46;98763.31;;;7.29;69.29
54270;BME280;40181;51.560;13.000;2024-02-23T07:45:15;98758.06;;;7.34;68.87
54270;BME280;40181;51.560;13.000;2024-02-23T07:47:45;98780.72;;;7.19;70.17
54270;BME280;40181;51.560;13.000;2024-02-23T07:50:14;98785.09;;;7.22;70.47
54270;BME280;40181;51.560;13.000;2024-02-23T07:52:44;98780.59;;;7.66;69.79
54270;BME280;40181;51.560;13.000;2024-02-23T07:55:16;98779.84;;;7.10;71.23
54270;BME280;40181;51.560;13.000;2024-02-23T07:57:45;98795.47;;;7.50;70.00
54270;BME280;40181;51.560;13.000;2024-02-23T08:00:14;98805.91;;;7.47;71.45
54270;BME280;40181;51.560;13.000;2024-02-23T08:02:44;98802.47;;;7.43;71.21
54270;BME280;40181;51.560;13.000;2024-02-23T08:05:13;98803.31;;;7.44;71.31
54270;BME280;40181;51.560;13.000;2024-02-23T08:07:42;98812.03;;;7.37;72.16
54270;BME280;40181;51.560;13.000;2024-02-23T08:10:11;98793.66;;;7.65;72.09
54270;BME280;40181;51.560;13.000;2024-02-23T08:12:43;98788.50;;;7.41;73.10
54270;BME280;40181;51.560;13.000;2024-02-23T08:15:13;98777.94;;;7.86;72.33
54270;BME280;40181;51.560;13.000;2024-02-23T08:17:42;98789.25;;;7.90;72.26
54270;BME280;40181;51.560;13.000;2024-02-23T08:20:11;98795.44;;;7.63;74.65
54270;BME280;40181;51.560;13.000;2024-02-23T08:22:40;98815.38;;;7.88;74.60
54270;BME280;40181;51.560;13.000;2024-02-23T08:25:09;98824.09;;;7.89;74.39
54270;BME280;40181;51.560;13.000;2024-02-23T08:27:42;98841.59;;;7.64;74.30
54270;BME280;40181;51.560;13.000;2024-02-23T08:30:14;98845.94;;;7.72;73.98
54270;BME280;40181;51.560;13.000;2024-02-23T08:32:45;98831.13;;;7.76;73.17
54270;BME280;40181;51.560;13.000;2024-02-23T08:35:15;98825.88;;;7.73;72.06
54270;BME280;40181;51.560;13.000;2024-02-23T08:37:44;98811.06;;;7.83;71.84
54270;BME280;40181;51.560;13.000;2024-02-23T08:40:13;98817.13;;;7.89;72.02
54270;BME280;40181;51.560;13.000;2024-02-23T08:42:45;98818.13;;;7.48;71.91
54270;BME280;40181;51.560;13.000;2024-02-23T08:45:15;98813.72;;;7.64;71.02
54270;BME280;40181;51.560;13.000;2024-02-23T08:47:44;98816.31;;;7.72;70.15
54270;BME280;40181;51.560;13.000;2024-02-23T08:50:13;98811.06;;;7.78;69.71
54270;BME280;40181;51.560;13.000;2024-02-23T08:52:42;98811.16;;;7.41;69.17
54270;BME280;40181;51.560;13.000;2024-02-23T08:55:11;98817.22;;;7.61;68.10
54270;BME280;40181;51.560;13.000;2024-02-23T08:57:40;98821.59;;;7.61;67.18
54270;BME280;40181;51.560;13.000;2024-02-23T09:00:13;98818.03;;;7.79;66.98
54270;BME280;40181;51.560;13.000;2024-02-23T09:02:43;98820.75;;;7.43;67.01
54270;BME280;40181;51.560;13.000;2024-02-23T09:05:12;98835.47;;;7.71;66.31
54270;BME280;40181;51.560;13.000;2024-02-23T09:07:41;98845.97;;;7.51;66.05
54270;BME280;40181;51.560;13.000;2024-02-23T09:10:10;98861.63;;;7.71;65.10
54270;BME280;40181;51.560;13.000;2024-02-23T09:12:40;98848.50;;;7.93;64.71
54270;BME280;40181;51.560;13.000;2024-02-23T09:15:12;98859.84;;;7.85;64.07
54270;BME280;40181;51.560;13.000;2024-02-23T09:17:41;98871.16;;;7.89;61.79
54270;BME280;40181;51.560;13.000;2024-02-23T09:20:11;98886.00;;;7.79;62.73
54270;BME280;40181;51.560;13.000;2024-02-23T09:22:40;98875.56;;;7.74;62.29
54270;BME280;40181;51.560;13.000;2024-02-23T09:25:09;98879.00;;;7.91;62.28
54270;BME280;40181;51.560;13.000;2024-02-23T09:27:38;98874.63;;;7.89;61.41
54270;BME280;40181;51.560;13.000;2024-02-23T09:30:13;98884.25;;;7.84;61.01
54270;BME280;40181;51.560;13.000;2024-02-23T09:32:42;98867.69;;;7.78;62.10
54270;BME280;40181;51.560;13.000;2024-02-23T09:35:12;98876.44;;;7.69;61.46
54270;BME280;40181;51.560;13.000;2024-02-23T09:37:41;98877.25;;;7.89;62.25
54270;BME280;40181;51.560;13.000;2024-02-23T09:40:11;98867.66;;;7.95;61.62
54270;BME280;40181;51.560;13.000;2024-02-23T09:42:41;98872.03;;;7.86;61.57
54270;BME280;40181;51.560;13.000;2024-02-23T09:45:13;98872.97;;;7.67;61.23
54270;BME280;40181;51.560;13.000;2024-02-23T09:47:43;98870.22;;;8.09;60.41
54270;BME280;40181;51.560;13.000;2024-02-23T09:50:12;98864.97;;;8.12;60.12
54270;BME280;40181;51.560;13.000;2024-02-23T09:52:42;98876.41;;;7.81;60.54
54270;BME280;40181;51.560;13.000;2024-02-23T09:55:11;98866.81;;;7.80;60.30
54270;BME280;40181;51.560;13.000;2024-02-23T09:57:41;98866.78;;;7.94;59.89
54270;BME280;40181;51.560;13.000;2024-02-23T10:00:14;98860.75;;;7.80;58.19
54270;BME280;40181;51.560;13.000;2024-02-23T10:02:45;98871.13;;;7.95;57.34
54270;BME280;40181;51.560;13.000;2024-02-23T10:05:16;98871.09;;;8.06;56.94
54270;BME280;40181;51.560;13.000;2024-02-23T10:07:45;98863.13;;;8.36;57.03
54270;BME280;40181;51.560;13.000;2024-02-23T10:10:24;98870.09;;;8.35;56.55
54270;BME280;40181;51.560;13.000;2024-02-23T10:12:57;98892.72;;;8.45;57.43
54270;BME280;40181;51.560;13.000;2024-02-23T10:15:31;98885.78;;;8.41;55.85
54270;BME280;40181;51.560;13.000;2024-02-23T10:18:00;98884.94;;;8.33;55.43
54270;BME280;40181;51.560;13.000;2024-02-23T10:20:30;98871.75;;;8.63;55.23
54270;BME280;40181;51.560;13.000;2024-02-23T10:23:00;98877.00;;;8.58;55.16
54270;BME280;40181;51.560;13.000;2024-02-23T10:25:29;98884.88;;;8.49;56.02
54270;BME280;40181;51.560;13.000;2024-02-23T10:28:01;98884.91;;;8.53;55.55
54270;BME280;40181;51.560;13.000;2024-02-23T10:30:32;98882.25;;;8.45;54.57
54270;BME280;40181;51.560;13.000;2024-02-23T10:33:03;98868.25;;;8.64;55.24
54270;BME280;40181;51.560;13.000;2024-02-23T10:35:35;98878.75;;;8.59;55.22
54270;BME280;40181;51.560;13.000;2024-02-23T10:38:08;98883.03;;;8.68;54.98
54270;BME280;40181;51.560;13.000;2024-02-23T10:40:39;98890.03;;;8.74;54.74
54270;BME280;40181;51.560;13.000;2024-02-23T10:43:12;98890.00;;;8.77;54.96
54270;BME280;40181;51.560;13.000;2024-02-23T10:45:47;98884.84;;;8.63;54.95
54270;BME280;40181;51.560;13.000;2024-02-23T10:48:16;98894.22;;;8.95;55.58
54270;BME280;40181;51.560;13.000;2024-02-23T10:50:46;98906.63;;;8.71;55.25
54270;BME280;40181;51.560;13.000;2024-02-23T10:53:16;98891.91;;;8.39;55.25
54270;BME280;40181;51.560;13.000;2024-02-23T10:55:47;98908.47;;;8.42;56.04
54270;BME280;40181;51.560;13.000;2024-02-23T10:58:20;98904.75;;;8.87;56.13
54270;BME280;40181;51.560;13.000;2024-02-23T11:00:52;98901.41;;;8.66;56.43
54270;BME280;40181;51.560;13.000;2024-02-23T11:03:23;98895.31;;;8.50;56.63
54270;BME280;40181;51.560;13.000;2024-02-23T11:05:53;98909.22;;;8.71;56.70
54270;BME280;40181;51.560;13.000;2024-02-23T11:08:22;98911.13;;;8.27;56.74
54270;BME280;40181;51.560;13.000;2024-02-23T11:10:51;98904.81;;;8.76;57.06
54270;BME280;40181;51.560;13.000;2024-02-23T11:13:29;98918.03;;;8.50;57.12
54270;BME280;40181;51.560;13.000;2024-02-23T11:16:10;98923.06;;;8.93;57.51
54270;BME280;40181;51.560;13.000;2024-02-23T11:18:40;98923.13;;;8.82;57.21
54270;BME280;40181;51.560;13.000;2024-02-23T11:21:10;98927.41;;;8.99;57.17
54270;BME280;40181;51.560;13.000;2024-02-23T11:23:43;98932.66;;;8.91;57.09
54270;BME280;40181;51.560;13.000;2024-02-23T11:26:17;98927.47;;;8.83;56.23
54270;BME280;40181;51.560;13.000;2024-02-23T11:28:48;98924.97;;;8.60;56.12
54270;BME280;40181;51.560;13.000;2024-02-23T11:31:22;98928.44;;;8.67;55.71
54270;BME280;40181;51.560;13.000;2024-02-23T11:33:53;98926.59;;;8.84;55.66
54270;BME280;40181;51.560;13.000;2024-02-23T11:36:24;98929.31;;;8.67;55.34
54270;BME280;40181;51.560;13.000;2024-02-23T11:38:57;98925.03;;;8.43;56.38
54270;BME280;40181;51.560;13.000;2024-02-23T11:41:27;98923.88;;;8.98;55.68
54270;BME280;40181;51.560;13.000;2024-02-23T11:43:57;98936.19;;;8.87;55.59
54270;BME280;40181;51.560;13.000;2024-02-23T11:46:29;98932.78;;;8.76;56.14
54270;BME280;40181;51.560;13.000;2024-02-23T11:48:58;98946.75;;;8.71;56.08
54270;BME280;40181;51.560;13.000;2024-02-23T11:51:27;98931.72;;;9.06;55.66
54270;BME280;40181;51.560;13.000;2024-02-23T11:53:57;98928.28;;;8.95;55.35
54270;BME280;40181;51.560;13.000;2024-02-23T11:56:26;98935.25;;;8.99;55.69
54270;BME280;40181;51.560;13.000;2024-02-23T11:58:55;98939.41;;;9.26;55.31
54270;BME280;40181;51.560;13.000;2024-02-23T12:01:25;98929.00;;;9.17;55.44
54270;BME280;40181;51.560;13.000;2024-02-23T12:03:59;98915.81;;;9.28;55.59
54270;BME280;40181;51.560;13.000;2024-02-23T12:06:29;98909.78;;;9.20;56.05
54270;BME280;40181;51.560;13.000;2024-02-23T12:08:58;98918.44;;;9.26;56.75
54270;BME280;40181;51.560;13.000;2024-02-23T12:11:28;98915.06;;;9.15;57.48
54270;BME280;40181;51.560;13.000;2024-02-23T12:13:57;98913.13;;;9.37;57.58
54270;BME280;40181;51.560;13.000;2024-02-23T12:16:27;98917.69;;;9.09;57.68
54270;BME280;40181;51.560;13.000;2024-02-23T12:19:00;98922.09;;;9.10;57.22
54270;BME280;40181;51.560;13.000;2024-02-23T12:21:30;98921.97;;;9.27;57.19
54270;BME280;40181;51.560;13.000;2024-02-23T12:24:04;98924.72;;;9.08;56.64
54270;BME280;40181;51.560;13.000;2024-02-23T12:26:34;98929.81;;;9.25;56.60
54270;BME280;40181;51.560;13.000;2024-02-23T12:29:04;98932.56;;;9.08;56.38
54270;BME280;40181;51.560;13.000;2024-02-23T12:31:36;98926.47;;;9.03;57.16
54270;BME280;40181;51.560;13.000;2024-02-23T12:34:05;98930.03;;;8.94;56.57
54270;BME280;40181;51.560;13.000;2024-02-23T12:36:36;98931.84;;;8.84;56.60
54270;BME280;40181;51.560;13.000;2024-02-23T12:39:06;98941.47;;;8.76;55.91
54270;BME280;40181;51.560;13.000;2024-02-23T12:41:35;98947.47;;;8.98;55.52
54270;BME280;40181;51.560;13.000;2024-02-23T12:44:04;98947.66;;;8.66;55.46
54270;BME280;40181;51.560;13.000;2024-02-23T12:46:36;98926.50;;;8.98;55.90
54270;BME280;40181;51.560;13.000;2024-02-23T12:49:05;98937.03;;;8.89;55.65
54270;BME280;40181;51.560;13.000;2024-02-23T12:51:34;98932.72;;;8.83;56.17
54270;BME280;40181;51.560;13.000;2024-02-23T12:54:03;98936.03;;;9.12;55.13
54270;BME280;40181;51.560;13.000;2024-02-23T12:56:32;98949.34;;;8.71;55.12
54270;BME280;40181;51.560;13.000;2024-02-23T12:59:01;98933.47;;;9.06;54.83
54270;BME280;40181;51.560;13.000;2024-02-23T13:01:30;98950.91;;;9.07;54.94
54270;BME280;40181;51.560;13.000;2024-02-23T13:04:05;98935.22;;;9.04;55.31
54270;BME280;40181;51.560;13.000;2024-02-23T13:06:35;98932.72;;;8.85;54.54
54270;BME280;40181;51.560;13.000;2024-02-23T13:09:05;98942.91;;;9.29;54.59
54270;BME280;40181;51.560;13.000;2024-02-23T13:11:38;98924.78;;;8.99;54.12